createdAt,value
2023-04-27T00:02:09.952Z,2.52
2023-04-27T00:04:37.544Z,2.54
2023-04-27T00:07:04.173Z,2.50
2023-04-27T00:09:30.652Z,2.47
2023-04-27T00:11:57.052Z,2.47
2023-04-27T00:14:23.574Z,2.39
2023-04-27T00:16:50.157Z,2.29
2023-04-27T00:19:16.864Z,2.24
2023-04-27T00:21:43.316Z,2.22
2023-04-27T00:24:09.780Z,2.25
2023-04-27T00:26:36.361Z,2.21
2023-04-27T00:29:02.810Z,2.13
2023-04-27T00:31:29.287Z,2.09
2023-04-27T00:33:55.863Z,2.10
2023-04-27T00:36:23.231Z,2.11
2023-04-27T00:38:51.608Z,2.13
2023-04-27T00:41:18.117Z,2.06
2023-04-27T00:43:45.923Z,2.01
2023-04-27T00:46:13.697Z,1.92
2023-04-27T00:48:41.140Z,1.88
2023-04-27T00:51:07.611Z,1.85
2023-04-27T00:53:35.941Z,1.79
2023-04-27T00:56:03.486Z,1.73
2023-04-27T00:58:30.227Z,1.70
2023-04-27T01:00:57.006Z,1.66
2023-04-27T01:03:23.660Z,1.63
2023-04-27T01:05:50.512Z,1.65
2023-04-27T01:08:23.192Z,1.69
2023-04-27T01:10:50.663Z,1.69
2023-04-27T01:13:18.184Z,1.61
2023-04-27T01:15:45.348Z,1.53
2023-04-27T01:18:11.949Z,1.46
2023-04-27T01:20:38.565Z,1.44
2023-04-27T01:23:05.067Z,1.42
2023-04-27T01:25:31.896Z,1.36
2023-04-27T01:27:58.308Z,1.36
2023-04-27T01:30:25.058Z,1.38
2023-04-27T01:32:54.197Z,1.35
2023-04-27T01:35:22.687Z,1.36
2023-04-27T01:37:50.293Z,1.38
2023-04-27T01:40:16.921Z,1.37
2023-04-27T01:42:43.374Z,1.37
2023-04-27T01:45:11.015Z,1.39
2023-04-27T01:47:37.537Z,1.37
2023-04-27T01:50:04.240Z,1.31
2023-04-27T01:52:30.695Z,1.26
2023-04-27T01:54:57.263Z,1.20
2023-04-27T01:57:23.747Z,1.18
2023-04-27T01:59:50.371Z,1.13
2023-04-27T02:02:16.775Z,1.06
2023-04-27T02:04:43.728Z,1.01
2023-04-27T02:07:10.937Z,1.01
2023-04-27T02:09:37.569Z,1.01
2023-04-27T02:12:04.218Z,0.99
2023-04-27T02:14:30.706Z,0.98
2023-04-27T02:16:57.144Z,0.98
2023-04-27T02:19:23.590Z,0.97
2023-04-27T02:21:50.766Z,0.92
2023-04-27T02:24:18.224Z,0.86
2023-04-27T02:26:44.685Z,0.80
2023-04-27T02:29:11.490Z,0.74
2023-04-27T02:31:38.605Z,0.70
2023-04-27T02:34:05.060Z,0.68
2023-04-27T02:36:32.341Z,0.65
2023-04-27T02:39:00.556Z,0.65
2023-04-27T02:41:28.480Z,0.68
2023-04-27T02:43:54.848Z,0.68
2023-04-27T02:46:21.354Z,0.59
2023-04-27T02:48:47.853Z,0.56
2023-04-27T02:51:14.321Z,0.51
2023-04-27T02:53:41.925Z,0.44
2023-04-27T02:56:10.116Z,0.43
2023-04-27T02:58:37.150Z,0.38
2023-04-27T03:01:03.700Z,0.37
2023-04-27T03:03:30.278Z,0.36
2023-04-27T03:05:57.684Z,0.33
2023-04-27T03:08:26.234Z,0.29
2023-04-27T03:10:52.688Z,0.28
2023-04-27T03:13:19.235Z,0.30
2023-04-27T03:15:47.007Z,0.25
2023-04-27T03:18:13.461Z,0.19
2023-04-27T03:20:45.146Z,0.16
2023-04-27T03:23:12.571Z,0.16
2023-04-27T03:25:39.056Z,0.09
2023-04-27T03:28:05.577Z,0.07
2023-04-27T03:30:31.971Z,0.07
2023-04-27T03:32:58.637Z,0.10
2023-04-27T03:35:28.100Z,0.11
2023-04-27T03:37:54.557Z,0.11
2023-04-27T03:40:21.696Z,0.11
2023-04-27T03:42:50.661Z,0.09
2023-04-27T03:45:19.142Z,0.09
2023-04-27T03:47:45.704Z,0.06
2023-04-27T03:50:15.251Z,0.07
2023-04-27T03:52:41.862Z,0.07
2023-04-27T03:55:14.525Z,0.03
2023-04-27T03:57:41.512Z,-0.07
2023-04-27T04:00:12.113Z,-0.16
2023-04-27T04:02:42.152Z,-0.17
2023-04-27T04:05:09.246Z,-0.18
2023-04-27T04:07:35.999Z,-0.17
2023-04-27T04:10:03.474Z,-0.19
2023-04-27T04:12:30.512Z,-0.20
2023-04-27T04:14:59.680Z,-0.16
2023-04-27T04:17:26.490Z,-0.11
2023-04-27T04:19:52.968Z,-0.08
2023-04-27T04:22:21.372Z,-0.08
2023-04-27T04:24:47.893Z,-0.07
2023-04-27T04:27:14.360Z,-0.06
2023-04-27T04:29:40.834Z,-0.07
2023-04-27T04:32:07.471Z,-0.08
2023-04-27T04:34:34.376Z,-0.06
2023-04-27T04:37:00.795Z,-0.01
2023-04-27T04:39:31.824Z,0.06
2023-04-27T04:41:58.289Z,0.13
2023-04-27T04:44:24.876Z,0.22
2023-04-27T04:46:51.888Z,0.28
2023-04-27T04:49:18.438Z,0.33
2023-04-27T04:51:45.580Z,0.40
2023-04-27T04:54:12.340Z,0.49
2023-04-27T04:56:44.371Z,0.57
2023-04-27T04:59:11.225Z,0.64
2023-04-27T05:01:37.821Z,0.69
2023-04-27T05:04:04.594Z,0.78
2023-04-27T05:06:32.291Z,0.87
2023-04-27T05:08:58.726Z,1.14
2023-04-27T05:11:25.399Z,2.56
2023-04-27T05:13:51.891Z,3.97
2023-04-27T05:16:18.446Z,3.71
2023-04-27T05:18:45.039Z,3.78
2023-04-27T05:21:20.620Z,4.29
2023-04-27T05:23:47.022Z,5.54
2023-04-27T05:26:17.061Z,6.49
2023-04-27T05:28:43.854Z,7.30
2023-04-27T05:31:10.837Z,7.81
2023-04-27T05:33:37.321Z,8.15
2023-04-27T05:36:04.091Z,8.44
2023-04-27T05:38:30.527Z,8.60
2023-04-27T05:40:58.988Z,8.89
2023-04-27T05:43:26.189Z,8.89
2023-04-27T05:45:53.473Z,9.06
2023-04-27T05:48:21.147Z,8.82
2023-04-27T05:50:48.622Z,8.69
2023-04-27T05:53:15.067Z,9.24
2023-04-27T05:55:42.828Z,9.52
2023-04-27T05:58:09.491Z,9.62
2023-04-27T06:00:38.314Z,9.78
2023-04-27T06:03:05.103Z,9.91
2023-04-27T06:05:31.804Z,9.98
2023-04-27T06:07:58.432Z,10.05
2023-04-27T06:10:24.886Z,10.11
2023-04-27T06:12:51.423Z,9.76
2023-04-27T06:15:18.037Z,9.70
2023-04-27T06:17:46.124Z,9.27
2023-04-27T06:20:15.348Z,8.89
2023-04-27T06:22:41.882Z,8.56
2023-04-27T06:25:08.750Z,8.77
2023-04-27T06:27:35.461Z,9.01
2023-04-27T06:30:04.818Z,9.26
2023-04-27T06:32:32.127Z,9.54
2023-04-27T06:35:04.528Z,9.24
2023-04-27T06:37:33.338Z,9.16
2023-04-27T06:39:59.929Z,9.03
2023-04-27T06:42:27.297Z,9.08
2023-04-27T06:44:56.386Z,8.91
2023-04-27T06:47:23.745Z,9.17
2023-04-27T06:49:50.894Z,9.60
2023-04-27T06:52:17.415Z,9.39
2023-04-27T06:54:43.882Z,8.32
2023-04-27T06:57:10.798Z,7.72
2023-04-27T06:59:37.224Z,7.57
2023-04-27T07:02:03.625Z,7.44
2023-04-27T07:04:30.257Z,7.33
2023-04-27T07:06:57.252Z,7.32
2023-04-27T07:09:27.618Z,7.43
2023-04-27T07:11:55.227Z,7.34
2023-04-27T07:14:22.282Z,7.30
2023-04-27T07:16:48.693Z,7.35
2023-04-27T07:19:15.415Z,7.50
2023-04-27T07:21:41.927Z,7.60
2023-04-27T07:24:08.555Z,7.64
2023-04-27T07:26:35.048Z,7.69
2023-04-27T07:29:04.220Z,7.72
2023-04-27T07:31:35.512Z,7.86
2023-04-27T07:34:03.056Z,7.94
2023-04-27T07:36:29.462Z,8.02
2023-04-27T07:38:58.704Z,8.00
2023-04-27T07:41:25.215Z,8.10
2023-04-27T07:43:52.402Z,8.12
2023-04-27T07:46:19.048Z,8.22
2023-04-27T07:48:45.584Z,8.29
2023-04-27T07:51:16.172Z,8.43
2023-04-27T07:53:42.690Z,8.39
2023-04-27T07:56:10.122Z,8.43
2023-04-27T07:58:37.946Z,8.46
2023-04-27T08:01:04.476Z,8.47
2023-04-27T08:03:31.651Z,8.63
2023-04-27T08:05:58.818Z,8.71
2023-04-27T08:08:25.563Z,8.80
2023-04-27T08:10:52.014Z,8.78
2023-04-27T08:13:18.543Z,8.70
2023-04-27T08:15:44.958Z,8.75
2023-04-27T08:18:11.554Z,8.85
2023-04-27T08:20:38.034Z,8.93
2023-04-27T08:23:04.470Z,8.96
2023-04-27T08:25:32.215Z,9.07
2023-04-27T08:27:58.654Z,9.20
2023-04-27T08:30:25.269Z,9.30
2023-04-27T08:32:51.773Z,9.47
2023-04-27T08:35:18.352Z,9.46
2023-04-27T08:37:45.547Z,9.38
2023-04-27T08:40:12.375Z,9.43
2023-04-27T08:42:41.980Z,9.35
2023-04-27T08:45:09.132Z,9.38
2023-04-27T08:47:42.880Z,9.40
2023-04-27T08:50:12.238Z,9.58
2023-04-27T08:52:38.756Z,9.73
2023-04-27T08:55:07.422Z,9.80
2023-04-27T08:57:33.958Z,9.65
2023-04-27T09:00:01.031Z,9.77
2023-04-27T09:02:29.660Z,9.88
2023-04-27T09:04:56.933Z,9.93
2023-04-27T09:07:23.740Z,9.92
2023-04-27T09:09:50.484Z,9.99
2023-04-27T09:12:21.703Z,10.04
2023-04-27T09:14:58.518Z,10.07
2023-04-27T09:17:30.139Z,10.16
2023-04-27T09:20:09.044Z,10.31
2023-04-27T09:22:52.869Z,10.48
2023-04-27T09:25:31.395Z,10.54
2023-04-27T09:27:59.610Z,10.60
2023-04-27T09:30:29.648Z,10.73
2023-04-27T09:33:04.258Z,10.85
2023-04-27T09:35:33.144Z,10.94
2023-04-27T09:38:03.102Z,11.04
2023-04-27T09:40:31.131Z,11.16
2023-04-27T09:43:03.263Z,11.16
2023-04-27T09:45:30.466Z,11.03
2023-04-27T09:47:58.261Z,11.14
2023-04-27T09:50:24.802Z,11.17
2023-04-27T09:52:51.512Z,11.13
2023-04-27T09:55:24.520Z,11.19
2023-04-27T09:58:20.800Z,11.44
2023-04-27T10:00:59.014Z,11.44
2023-04-27T10:03:38.129Z,11.39
2023-04-27T10:06:07.596Z,11.25
2023-04-27T10:08:36.252Z,11.37
2023-04-27T10:11:16.196Z,11.34
2023-04-27T10:13:54.408Z,11.38
2023-04-27T10:16:22.149Z,11.55
2023-04-27T10:18:54.044Z,11.55
2023-04-27T10:21:22.270Z,11.62
2023-04-27T10:23:51.713Z,11.71
2023-04-27T10:26:25.805Z,11.79
2023-04-27T10:29:09.167Z,11.74
2023-04-27T10:31:36.118Z,11.83
2023-04-27T10:34:07.168Z,11.97
2023-04-27T10:36:40.815Z,12.11
2023-04-27T10:39:39.672Z,11.89
2023-04-27T10:42:11.466Z,11.87
2023-04-27T10:44:38.998Z,11.97
2023-04-27T10:47:19.878Z,12.04
2023-04-27T10:49:46.407Z,12.10
2023-04-27T10:52:13.276Z,12.28
2023-04-27T10:54:45.302Z,12.40
2023-04-27T10:57:13.098Z,12.50
2023-04-27T10:59:53.815Z,12.41
2023-04-27T11:02:28.070Z,12.42
2023-04-27T11:04:56.319Z,12.44
2023-04-27T11:07:28.070Z,12.45
2023-04-27T11:09:55.331Z,12.56
2023-04-27T11:12:21.995Z,12.69
2023-04-27T11:14:48.519Z,12.92
2023-04-27T11:17:14.981Z,12.97
2023-04-27T11:19:47.800Z,12.68
2023-04-27T11:22:18.452Z,12.76
2023-04-27T11:24:52.445Z,12.95
2023-04-27T11:27:22.100Z,12.84
2023-04-27T11:29:48.597Z,12.96
2023-04-27T11:32:25.692Z,13.07
2023-04-27T11:34:54.764Z,13.04
2023-04-27T11:37:27.651Z,12.79
2023-04-27T11:39:55.454Z,12.79
2023-04-27T11:42:26.508Z,12.79
2023-04-27T11:45:06.666Z,12.73
2023-04-27T11:47:35.863Z,12.69
2023-04-27T11:50:05.546Z,12.63
2023-04-27T11:52:33.926Z,12.63
2023-04-27T11:55:01.835Z,12.69
2023-04-27T11:57:30.466Z,12.82
2023-04-27T12:00:00.243Z,12.95
2023-04-27T12:02:31.596Z,13.19
2023-04-27T12:04:59.810Z,13.12
2023-04-27T12:07:26.942Z,13.24
2023-04-27T12:09:53.514Z,13.07
2023-04-27T12:12:22.326Z,13.23
2023-04-27T12:14:49.932Z,13.33
2023-04-27T12:17:16.557Z,13.26
2023-04-27T12:19:43.105Z,13.30
2023-04-27T12:22:09.690Z,13.34
2023-04-27T12:24:37.095Z,13.41
2023-04-27T12:27:04.368Z,13.39
2023-04-27T12:29:32.097Z,13.47
2023-04-27T12:31:59.146Z,13.52
2023-04-27T12:34:26.040Z,13.53
2023-04-27T12:36:52.417Z,13.70
2023-04-27T12:39:20.900Z,13.72
2023-04-27T12:41:48.981Z,13.73
2023-04-27T12:44:16.894Z,13.51
2023-04-27T12:46:44.028Z,13.58
2023-04-27T12:49:12.472Z,13.37
2023-04-27T12:51:41.333Z,13.54
2023-04-27T12:54:09.533Z,13.76
2023-04-27T12:56:36.491Z,13.97
2023-04-27T12:59:02.912Z,14.13
2023-04-27T13:01:31.204Z,14.15
2023-04-27T13:04:02.781Z,14.25
2023-04-27T13:06:31.217Z,14.56
2023-04-27T13:08:59.341Z,14.78
2023-04-27T13:11:26.924Z,14.56
2023-04-27T13:13:54.916Z,14.54
2023-04-27T13:16:22.666Z,14.39
2023-04-27T13:18:51.933Z,14.44
2023-04-27T13:21:18.989Z,14.52
2023-04-27T13:23:45.623Z,14.63
2023-04-27T13:26:12.780Z,14.62
2023-04-27T13:28:40.183Z,14.33
2023-04-27T13:31:06.716Z,14.53
2023-04-27T13:33:41.900Z,14.60
2023-04-27T13:36:10.195Z,14.78
2023-04-27T13:38:36.894Z,14.90
2023-04-27T13:41:04.025Z,14.90
2023-04-27T13:43:31.188Z,14.76
2023-04-27T13:46:00.750Z,14.75
2023-04-27T13:48:28.369Z,14.56
2023-04-27T13:50:55.723Z,14.64
2023-04-27T13:53:25.763Z,14.38
2023-04-27T13:55:57.106Z,14.10
2023-04-27T13:58:26.102Z,14.11
2023-04-27T14:00:53.145Z,13.91
2023-04-27T14:03:20.114Z,13.96
2023-04-27T14:05:49.332Z,14.13
2023-04-27T14:08:15.897Z,14.21
2023-04-27T14:10:43.048Z,14.31
2023-04-27T14:13:09.585Z,14.35
2023-04-27T14:15:37.322Z,14.32
2023-04-27T14:18:08.457Z,14.43
2023-04-27T14:20:35.896Z,14.42
2023-04-27T14:23:03.995Z,14.56
2023-04-27T14:25:35.584Z,14.47
2023-04-27T14:28:06.360Z,14.40
2023-04-27T14:30:34.406Z,14.37
2023-04-27T14:33:02.078Z,14.36
2023-04-27T14:35:28.735Z,14.16
2023-04-27T14:37:57.100Z,14.28
2023-04-27T14:40:24.355Z,14.52
2023-04-27T14:42:51.908Z,14.44
2023-04-27T14:45:18.907Z,14.35
2023-04-27T14:47:46.547Z,14.43
2023-04-27T14:50:13.212Z,14.56
2023-04-27T14:52:39.824Z,14.51
2023-04-27T14:55:07.040Z,14.46
2023-04-27T14:57:33.671Z,14.64
2023-04-27T15:00:00.781Z,14.95
2023-04-27T15:02:27.464Z,14.98
2023-04-27T15:04:54.047Z,14.73
2023-04-27T15:07:21.378Z,14.48
2023-04-27T15:09:47.959Z,14.55
2023-04-27T15:12:14.514Z,14.51
2023-04-27T15:14:40.993Z,14.37
2023-04-27T15:17:07.848Z,14.30
2023-04-27T15:19:34.625Z,14.37
2023-04-27T15:22:02.655Z,14.43
2023-04-27T15:24:29.231Z,14.55
2023-04-27T15:26:56.080Z,14.53
2023-04-27T15:29:22.601Z,14.48
2023-04-27T15:31:49.146Z,14.49
2023-04-27T15:34:16.008Z,14.47
2023-04-27T15:36:42.527Z,14.28
2023-04-27T15:39:10.209Z,14.18
2023-04-27T15:41:36.966Z,14.19
2023-04-27T15:44:04.984Z,14.07
2023-04-27T15:46:31.643Z,14.07
2023-04-27T15:48:58.879Z,14.00
2023-04-27T15:51:25.380Z,13.93
2023-04-27T15:53:52.008Z,13.91
2023-04-27T15:56:18.609Z,13.90
2023-04-27T15:58:45.178Z,13.89
2023-04-27T16:01:11.896Z,13.83
2023-04-27T16:03:38.652Z,14.04
2023-04-27T16:06:06.513Z,14.07
2023-04-27T16:08:33.195Z,13.97
2023-04-27T16:11:00.377Z,13.84
2023-04-27T16:13:28.337Z,13.82
2023-04-27T16:15:55.086Z,13.70
2023-04-27T16:18:21.573Z,13.73
2023-04-27T16:20:48.126Z,13.73
2023-04-27T16:23:15.120Z,13.78
2023-04-27T16:25:41.578Z,13.56
2023-04-27T16:28:08.942Z,13.51
2023-04-27T16:30:37.562Z,13.39
2023-04-27T16:33:04.134Z,13.33
2023-04-27T16:35:30.628Z,13.39
2023-04-27T16:37:57.208Z,13.40
2023-04-27T16:40:23.686Z,13.32
2023-04-27T16:42:50.394Z,13.34
2023-04-27T16:45:16.880Z,13.46
2023-04-27T16:47:45.777Z,13.51
2023-04-27T16:50:12.310Z,13.48
2023-04-27T16:52:39.149Z,13.36
2023-04-27T16:55:06.357Z,13.29
2023-04-27T16:57:32.780Z,13.22
2023-04-27T17:00:00.877Z,13.16
2023-04-27T17:02:27.518Z,13.18
2023-04-27T17:04:54.664Z,13.21
2023-04-27T17:07:21.343Z,13.20
2023-04-27T17:09:48.060Z,13.20
2023-04-27T17:12:16.596Z,13.13
2023-04-27T17:14:43.254Z,13.09
2023-04-27T17:17:10.379Z,13.04
2023-04-27T17:19:36.937Z,13.00
2023-04-27T17:22:04.246Z,12.97
2023-04-27T17:24:30.840Z,12.89
2023-04-27T17:26:57.314Z,12.78
2023-04-27T17:29:23.854Z,12.69
2023-04-27T17:31:50.772Z,12.60
2023-04-27T17:34:17.584Z,12.54
2023-04-27T17:36:44.271Z,12.42
2023-04-27T17:39:12.806Z,12.38
2023-04-27T17:41:39.939Z,12.35
2023-04-27T17:44:06.571Z,12.27
2023-04-27T17:46:33.379Z,12.20
2023-04-27T17:49:00.170Z,12.20
2023-04-27T17:51:27.887Z,12.14
2023-04-27T17:53:54.460Z,12.09
2023-04-27T17:56:21.030Z,12.07
2023-04-27T17:58:48.566Z,12.05
2023-04-27T18:10:56.376Z,11.86
2023-04-27T18:38:39.786Z,11.37
2023-04-27T18:41:07.181Z,11.28
2023-04-27T18:43:37.261Z,11.23
2023-04-27T18:46:04.542Z,11.19
2023-04-27T18:48:31.409Z,11.15
2023-04-27T18:50:58.224Z,11.11
2023-04-27T18:53:27.228Z,11.07
2023-04-27T18:55:53.768Z,11.03
2023-04-27T18:58:20.398Z,11.00
2023-04-27T19:00:46.922Z,10.99
2023-04-27T19:03:13.859Z,10.95
2023-04-27T19:05:43.173Z,10.94
2023-04-27T19:08:10.291Z,10.90
2023-04-27T19:10:37.424Z,10.90
2023-04-27T19:13:04.810Z,10.85
2023-04-27T19:15:31.299Z,10.81
2023-04-27T19:18:02.699Z,10.77
2023-04-27T19:20:37.073Z,10.74
2023-04-27T19:23:05.067Z,10.72
2023-04-27T19:25:31.759Z,10.72
2023-04-27T19:27:58.651Z,10.68
2023-04-27T19:30:25.351Z,10.68
2023-04-27T19:32:52.836Z,10.68
2023-04-27T19:35:20.423Z,10.69
2023-04-27T19:37:47.048Z,10.66
2023-04-27T19:40:13.684Z,10.65
2023-04-27T19:42:40.380Z,10.59
2023-04-27T19:45:07.486Z,10.60
2023-04-27T19:47:34.116Z,10.57
2023-04-27T19:50:00.864Z,10.56
2023-04-27T19:52:27.547Z,10.57
2023-04-27T19:54:54.796Z,10.55
2023-04-27T19:57:21.725Z,10.55
2023-04-27T19:59:48.360Z,10.49
2023-04-27T20:02:15.314Z,10.50
2023-04-27T20:04:42.272Z,10.48
2023-04-27T20:07:09.042Z,10.44
2023-04-27T20:09:35.866Z,10.40
2023-04-27T20:12:03.656Z,10.38
2023-04-27T20:14:33.632Z,10.36
2023-04-27T20:17:00.292Z,10.35
2023-04-27T20:19:26.890Z,10.32
2023-04-27T20:21:53.665Z,10.32
2023-04-27T20:24:20.452Z,10.31
2023-04-27T20:26:47.143Z,10.29
2023-04-27T20:29:13.678Z,10.25
2023-04-27T20:31:41.326Z,10.24
2023-04-27T20:34:07.882Z,10.24
2023-04-27T20:36:34.517Z,10.20
2023-04-27T20:39:01.282Z,10.16
2023-04-27T20:41:28.498Z,10.14
2023-04-27T20:43:55.449Z,10.13
2023-04-27T20:46:22.232Z,10.12
2023-04-27T20:48:48.937Z,10.09
2023-04-27T20:51:15.662Z,10.06
2023-04-27T20:53:42.318Z,10.03
2023-04-27T20:56:09.181Z,10.00
2023-04-27T20:58:36.151Z,9.98
2023-04-27T21:01:02.673Z,9.95
2023-04-27T21:03:29.515Z,9.90
2023-04-27T21:05:56.351Z,9.86
2023-04-27T21:08:22.984Z,9.83
2023-04-27T21:10:49.718Z,9.81
2023-04-27T21:13:16.229Z,9.79
2023-04-27T21:15:42.667Z,9.77
2023-04-27T21:18:15.986Z,9.74
2023-04-27T21:20:50.306Z,9.70
2023-04-27T21:23:17.057Z,9.67
2023-04-27T21:25:45.030Z,9.67
2023-04-27T21:28:11.722Z,9.63
2023-04-27T21:30:38.483Z,9.63
2023-04-27T21:33:05.235Z,9.62
2023-04-27T21:35:32.268Z,9.59
2023-04-27T21:37:59.338Z,9.62
2023-04-27T21:40:26.117Z,9.61
2023-04-27T21:42:53.979Z,9.63
2023-04-27T21:45:21.003Z,9.64
2023-04-27T21:47:48.272Z,9.60
2023-04-27T21:50:16.347Z,9.58
2023-04-27T21:52:42.858Z,9.55
2023-04-27T21:55:09.965Z,9.55
2023-04-27T21:57:36.788Z,9.53
2023-04-27T22:00:13.095Z,9.54
2023-04-27T22:02:42.488Z,9.51
2023-04-27T22:05:12.549Z,9.50
2023-04-27T22:07:38.983Z,9.45
2023-04-27T22:10:06.158Z,9.47
2023-04-27T22:12:33.363Z,9.47
2023-04-27T22:15:00.369Z,9.49
2023-04-27T22:17:27.682Z,9.45
2023-04-27T22:19:54.696Z,9.45
2023-04-27T22:22:21.247Z,9.42
2023-04-27T22:24:47.738Z,9.39
2023-04-27T22:27:14.218Z,9.37
2023-04-27T22:29:41.052Z,9.34
2023-04-27T22:32:11.178Z,9.33
2023-04-27T22:34:38.182Z,9.30
2023-04-27T22:37:04.709Z,9.28
2023-04-27T22:39:33.080Z,9.27
2023-04-27T22:41:59.854Z,9.28
2023-04-27T22:44:29.223Z,9.27
2023-04-27T22:46:56.480Z,9.23
2023-04-27T22:49:27.877Z,9.24
2023-04-27T22:51:57.838Z,9.24
2023-04-27T22:54:25.086Z,9.24
2023-04-27T22:56:51.863Z,9.21
2023-04-27T22:59:23.101Z,9.19
2023-04-27T23:01:49.876Z,9.19
2023-04-27T23:04:19.137Z,9.21
2023-04-27T23:06:46.430Z,9.19
2023-04-27T23:09:14.437Z,9.14
2023-04-27T23:11:41.516Z,9.12
2023-04-27T23:14:09.115Z,9.12
2023-04-27T23:16:36.105Z,9.13
2023-04-27T23:19:03.037Z,9.10
2023-04-27T23:21:29.620Z,9.05
2023-04-27T23:23:56.166Z,9.01
2023-04-27T23:26:22.614Z,8.96
2023-04-27T23:28:50.290Z,9.00
2023-04-27T23:31:17.062Z,9.00
2023-04-27T23:33:44.870Z,8.95
2023-04-27T23:36:12.716Z,8.94
2023-04-27T23:38:40.532Z,8.92
2023-04-27T23:41:08.444Z,8.90
2023-04-27T23:43:35.104Z,8.91
2023-04-27T23:46:03.465Z,8.90
2023-04-27T23:48:30.479Z,8.89
2023-04-27T23:51:01.392Z,8.84
2023-04-27T23:53:28.480Z,8.81
2023-04-27T23:55:56.938Z,8.78
2023-04-27T23:58:25.044Z,8.74
